sensor_id;sensor_type;location;lat;lon;timestamp;pressure;altitude;pressure_sealevel;temperature;humidity
76611;BME280;65503;48.534;9.062;2024-03-23T00:55:38;96266.44;;;10.07;63.12
76611;BME280;65503;48.534;9.062;2024-03-23T00:58:03;96265.31;;;10.03;62.94
76611;BME280;65503;48.534;9.062;2024-03-23T01:00:29;96257.34;;;9.98;63.42
76611;BME280;65503;48.534;9.062;2024-03-23T01:02:54;96258.97;;;9.99;62.89
76611;BME280;65503;48.534;9.062;2024-03-23T01:05:20;96250.72;;;9.90;63.45
76611;BME280;65503;48.534;9.062;2024-03-23T01:07:46;96240.66;;;9.87;63.13
76611;BME280;65503;48.534;9.062;2024-03-23T01:10:11;96238.28;;;9.85;63.27
76611;BME280;65503;48.534;9.062;2024-03-23T01:12:37;96233.50;;;9.82;63.75
76611;BME280;65503;48.534;9.062;2024-03-23T01:15:02;96228.44;;;9.76;63.70
76611;BME280;65503;48.534;9.062;2024-03-23T01:17:28;96229.56;;;9.63;64.66
76611;BME280;65503;48.534;9.062;2024-03-23T01:19:54;96223.84;;;9.66;64.42
76611;BME280;65503;48.534;9.062;2024-03-23T01:22:19;96229.09;;;9.66;64.17
76611;BME280;65503;48.534;9.062;2024-03-23T01:24:45;96234.88;;;9.68;64.43
76611;BME280;65503;48.534;9.062;2024-03-23T01:27:10;96225.81;;;9.76;64.30
76611;BME280;65503;48.534;9.062;2024-03-23T01:29:36;96223.25;;;10.03;64.47
76611;BME280;65503;48.534;9.062;2024-03-23T01:32:02;96219.28;;;10.17;63.69
76611;BME280;65503;48.534;9.062;2024-03-23T01:34:27;96217.66;;;10.16;63.31
76611;BME280;65503;48.534;9.062;2024-03-23T01:36:53;96213.25;;;10.43;62.88
76611;BME280;65503;48.534;9.062;2024-03-23T01:39:18;96206.03;;;10.82;62.02
76611;BME280;65503;48.534;9.062;2024-03-23T01:41:44;96198.22;;;11.29;60.54
76611;BME280;65503;48.534;9.062;2024-03-23T01:44:10;96198.00;;;11.31;58.82
76611;BME280;65503;48.534;9.062;2024-03-23T01:46:39;96198.91;;;11.51;59.51
76611;BME280;65503;48.534;9.062;2024-03-23T01:49:07;96196.03;;;11.90;58.70
76611;BME280;65503;48.534;9.062;2024-03-23T01:51:33;96190.84;;;12.20;57.60
76611;BME280;65503;48.534;9.062;2024-03-23T01:54:00;96181.72;;;12.53;56.28
76611;BME280;65503;48.534;9.062;2024-03-23T01:56:29;96177.28;;;12.69;56.16
76611;BME280;65503;48.534;9.062;2024-03-23T01:58:56;96182.00;;;12.82;55.83
76611;BME280;65503;48.534;9.062;2024-03-23T02:01:22;96171.47;;;12.97;55.10
76611;BME280;65503;48.534;9.062;2024-03-23T02:03:47;96172.03;;;13.14;54.29
76611;BME280;65503;48.534;9.062;2024-03-23T02:06:13;96169.66;;;13.18;54.44
76611;BME280;65503;48.534;9.062;2024-03-23T02:08:39;96164.09;;;13.30;54.12
76611;BME280;65503;48.534;9.062;2024-03-23T02:11:05;96165.94;;;13.39;53.74
76611;BME280;65503;48.534;9.062;2024-03-23T02:13:30;96163.03;;;13.41;54.05
76611;BME280;65503;48.534;9.062;2024-03-23T02:15:57;96153.53;;;13.24;53.64
76611;BME280;65503;48.534;9.062;2024-03-23T02:18:22;96146.63;;;12.93;54.78
76611;BME280;65503;48.534;9.062;2024-03-23T02:20:48;96143.75;;;12.95;55.41
76611;BME280;65503;48.534;9.062;2024-03-23T02:23:17;96137.94;;;13.03;55.02
76611;BME280;65503;48.534;9.062;2024-03-23T02:25:46;96138.72;;;13.08;55.00
76611;BME280;65503;48.534;9.062;2024-03-23T02:28:12;96138.22;;;13.16;54.86
76611;BME280;65503;48.534;9.062;2024-03-23T02:30:38;96127.94;;;13.15;54.99
76611;BME280;65503;48.534;9.062;2024-03-23T02:33:04;96130.81;;;13.18;55.01
76611;BME280;65503;48.534;9.062;2024-03-23T02:35:30;96129.50;;;13.26;54.72
76611;BME280;65503;48.534;9.062;2024-03-23T02:37:55;96132.94;;;13.32;54.67
76611;BME280;65503;48.534;9.062;2024-03-23T02:40:25;96127.63;;;13.42;54.54
76611;BME280;65503;48.534;9.062;2024-03-23T02:42:52;96131.59;;;13.34;54.58
76611;BME280;65503;48.534;9.062;2024-03-23T02:45:17;96134.47;;;13.53;54.30
76611;BME280;65503;48.534;9.062;2024-03-23T02:47:43;96134.19;;;13.59;54.57
76611;BME280;65503;48.534;9.062;2024-03-23T02:50:09;96133.34;;;13.69;54.14
76611;BME280;65503;48.534;9.062;2024-03-23T02:52:35;96121.66;;;13.85;53.56
76611;BME280;65503;48.534;9.062;2024-03-23T02:55:02;96114.50;;;13.91;53.22
76611;BME280;65503;48.534;9.062;2024-03-23T02:57:28;96128.53;;;13.86;53.63
76611;BME280;65503;48.534;9.062;2024-03-23T02:59:54;96120.28;;;13.98;53.12
76611;BME280;65503;48.534;9.062;2024-03-23T03:02:20;96105.72;;;14.05;53.05
76611;BME280;65503;48.534;9.062;2024-03-23T03:04:46;96115.72;;;14.08;52.93
76611;BME280;65503;48.534;9.062;2024-03-23T03:07:11;96114.66;;;14.15;53.01
76611;BME280;65503;48.534;9.062;2024-03-23T03:09:37;96120.97;;;14.24;52.50
76611;BME280;65503;48.534;9.062;2024-03-23T03:12:07;96114.63;;;14.20;52.71
76611;BME280;65503;48.534;9.062;2024-03-23T03:14:33;96116.75;;;14.13;52.34
76611;BME280;65503;48.534;9.062;2024-03-23T03:16:59;96113.06;;;14.14;52.94
76611;BME280;65503;48.534;9.062;2024-03-23T03:19:24;96113.84;;;14.14;52.92
76611;BME280;65503;48.534;9.062;2024-03-23T03:21:50;96110.94;;;14.16;52.89
76611;BME280;65503;48.534;9.062;2024-03-23T03:24:16;96106.19;;;14.13;52.71
76611;BME280;65503;48.534;9.062;2024-03-23T03:26:42;96109.41;;;14.04;53.07
76611;BME280;65503;48.534;9.062;2024-03-23T03:29:08;96107.31;;;13.96;53.55
76611;BME280;65503;48.534;9.062;2024-03-23T03:31:33;96099.41;;;13.91;53.50
76611;BME280;65503;48.534;9.062;2024-03-23T03:33:59;96098.16;;;13.84;53.92
76611;BME280;65503;48.534;9.062;2024-03-23T03:36:24;96101.84;;;13.83;54.21
76611;BME280;65503;48.534;9.062;2024-03-23T03:38:50;96103.16;;;13.80;54.42
76611;BME280;65503;48.534;9.062;2024-03-23T03:41:16;96086.28;;;13.76;54.67
76611;BME280;65503;48.534;9.062;2024-03-23T03:43:41;96074.66;;;13.72;53.19
76611;BME280;65503;48.534;9.062;2024-03-23T03:46:07;96065.81;;;13.22;53.16
76611;BME280;65503;48.534;9.062;2024-03-23T03:48:36;96065.06;;;12.81;55.61
76611;BME280;65503;48.534;9.062;2024-03-23T03:51:02;96058.22;;;12.50;55.93
76611;BME280;65503;48.534;9.062;2024-03-23T03:53:28;96049.50;;;12.34;56.99
76611;BME280;65503;48.534;9.062;2024-03-23T03:55:54;96046.31;;;12.22;57.78
76611;BME280;65503;48.534;9.062;2024-03-23T03:58:19;96045.78;;;12.25;58.01
76611;BME280;65503;48.534;9.062;2024-03-23T04:00:45;96043.69;;;12.27;58.39
76611;BME280;65503;48.534;9.062;2024-03-23T04:03:10;96037.09;;;12.40;58.65
76611;BME280;65503;48.534;9.062;2024-03-23T04:05:36;96025.75;;;12.50;58.66
76611;BME280;65503;48.534;9.062;2024-03-23T04:08:01;96026.28;;;12.62;58.61
76611;BME280;65503;48.534;9.062;2024-03-23T04:10:27;96020.97;;;12.77;58.21
76611;BME280;65503;48.534;9.062;2024-03-23T04:12:53;96014.66;;;12.73;58.30
76611;BME280;65503;48.534;9.062;2024-03-23T04:15:20;96000.94;;;12.81;57.71
76611;BME280;65503;48.534;9.062;2024-03-23T04:17:45;95990.63;;;12.84;57.92
76611;BME280;65503;48.534;9.062;2024-03-23T04:20:11;95989.81;;;12.84;57.76
76611;BME280;65503;48.534;9.062;2024-03-23T04:22:39;95976.38;;;12.75;58.18
76611;BME280;65503;48.534;9.062;2024-03-23T04:25:05;95966.59;;;12.86;58.07
76611;BME280;65503;48.534;9.062;2024-03-23T04:27:35;95961.31;;;12.86;57.77
76611;BME280;65503;48.534;9.062;2024-03-23T04:30:01;95952.84;;;12.84;57.88
76611;BME280;65503;48.534;9.062;2024-03-23T04:32:27;95951.28;;;12.78;58.29
76611;BME280;65503;48.534;9.062;2024-03-23T04:34:53;95957.34;;;12.78;58.28
76611;BME280;65503;48.534;9.062;2024-03-23T04:37:20;95948.13;;;12.81;58.46
76611;BME280;65503;48.534;9.062;2024-03-23T04:39:46;95954.44;;;12.85;58.44
76611;BME280;65503;48.534;9.062;2024-03-23T04:42:11;95950.69;;;13.01;57.95
76611;BME280;65503;48.534;9.062;2024-03-23T04:44:37;95952.25;;;13.12;58.04
76611;BME280;65503;48.534;9.062;2024-03-23T04:47:03;95944.84;;;13.19;57.74
76611;BME280;65503;48.534;9.062;2024-03-23T04:49:28;95945.03;;;13.33;57.39
76611;BME280;65503;48.534;9.062;2024-03-23T04:51:54;95946.81;;;13.48;57.27
76611;BME280;65503;48.534;9.062;2024-03-23T04:54:20;95944.16;;;13.53;56.77
76611;BME280;65503;48.534;9.062;2024-03-23T04:56:45;95939.84;;;13.62;56.78
76611;BME280;65503;48.534;9.062;2024-03-23T04:59:11;95938.72;;;13.73;56.15
76611;BME280;65503;48.534;9.062;2024-03-23T05:01:37;95951.91;;;13.83;56.00
76611;BME280;65503;48.534;9.062;2024-03-23T05:04:04;95948.28;;;13.69;55.97
76611;BME280;65503;48.534;9.062;2024-03-23T05:06:29;95959.47;;;14.00;55.49
76611;BME280;65503;48.534;9.062;2024-03-23T05:08:55;95964.28;;;14.27;54.13
76611;BME280;65503;48.534;9.062;2024-03-23T05:11:20;95988.78;;;14.42;54.18
76611;BME280;65503;48.534;9.062;2024-03-23T05:13:46;95996.25;;;13.47;60.97
76611;BME280;65503;48.534;9.062;2024-03-23T05:16:12;96010.19;;;12.58;65.14
76611;BME280;65503;48.534;9.062;2024-03-23T05:18:37;95998.84;;;12.32;67.62
76611;BME280;65503;48.534;9.062;2024-03-23T05:21:03;95994.38;;;12.33;68.62
76611;BME280;65503;48.534;9.062;2024-03-23T05:23:29;95969.84;;;12.22;69.35
76611;BME280;65503;48.534;9.062;2024-03-23T05:25:55;95994.09;;;12.04;70.01
76611;BME280;65503;48.534;9.062;2024-03-23T05:28:24;95993.03;;;12.05;71.22
76611;BME280;65503;48.534;9.062;2024-03-23T05:30:53;96016.22;;;12.03;71.43
76611;BME280;65503;48.534;9.062;2024-03-23T05:33:20;96045.25;;;12.08;71.52
76611;BME280;65503;48.534;9.062;2024-03-23T05:35:46;96060.47;;;11.81;72.65
76611;BME280;65503;48.534;9.062;2024-03-23T05:38:15;96068.88;;;11.73;72.92
76611;BME280;65503;48.534;9.062;2024-03-23T05:40:41;96084.13;;;11.66;73.43
76611;BME280;65503;48.534;9.062;2024-03-23T05:43:07;96084.88;;;11.56;73.84
76611;BME280;65503;48.534;9.062;2024-03-23T05:45:32;96094.50;;;11.35;74.46
76611;BME280;65503;48.534;9.062;2024-03-23T05:47:58;96094.72;;;11.29;74.05
76611;BME280;65503;48.534;9.062;2024-03-23T05:50:24;96099.78;;;11.35;74.36
76611;BME280;65503;48.534;9.062;2024-03-23T05:52:50;96092.47;;;11.05;74.58
76611;BME280;65503;48.534;9.062;2024-03-23T05:55:15;96090.09;;;10.99;74.37
76611;BME280;65503;48.534;9.062;2024-03-23T05:57:41;96104.66;;;10.74;74.14
76611;BME280;65503;48.534;9.062;2024-03-23T06:00:07;96110.41;;;10.71;75.15
76611;BME280;65503;48.534;9.062;2024-03-23T06:02:42;96121.41;;;10.37;75.54
76611;BME280;65503;48.534;9.062;2024-03-23T06:05:11;96132.78;;;10.42;75.75
76611;BME280;65503;48.534;9.062;2024-03-23T06:07:37;96140.88;;;10.67;75.18
76611;BME280;65503;48.534;9.062;2024-03-23T06:10:03;96133.84;;;10.73;74.22
76611;BME280;65503;48.534;9.062;2024-03-23T06:12:28;96138.50;;;10.66;74.31
76611;BME280;65503;48.534;9.062;2024-03-23T06:14:54;96153.00;;;10.68;74.29
76611;BME280;65503;48.534;9.062;2024-03-23T06:17:20;96160.53;;;10.87;72.64
76611;BME280;65503;48.534;9.062;2024-03-23T06:19:45;96159.63;;;11.08;72.07
76611;BME280;65503;48.534;9.062;2024-03-23T06:22:11;96178.06;;;11.08;71.40
76611;BME280;65503;48.534;9.062;2024-03-23T06:24:36;96184.34;;;11.02;71.06
76611;BME280;65503;48.534;9.062;2024-03-23T06:27:02;96182.75;;;11.01;71.16
76611;BME280;65503;48.534;9.062;2024-03-23T06:29:27;96180.47;;;10.83;70.40
76611;BME280;65503;48.534;9.062;2024-03-23T06:31:54;96203.94;;;10.57;68.05
76611;BME280;65503;48.534;9.062;2024-03-23T06:34:20;96196.31;;;10.34;69.32
76611;BME280;65503;48.534;9.062;2024-03-23T06:36:47;96212.75;;;10.19;68.74
76611;BME280;65503;48.534;9.062;2024-03-23T06:39:12;96215.16;;;10.26;68.99
76611;BME280;65503;48.534;9.062;2024-03-23T06:41:52;96212.16;;;10.39;69.13
76611;BME280;65503;48.534;9.062;2024-03-23T06:44:18;96214.13;;;10.27;68.19
76611;BME280;65503;48.534;9.062;2024-03-23T06:46:44;96228.81;;;10.23;68.30
76611;BME280;65503;48.534;9.062;2024-03-23T06:49:10;96234.84;;;10.02;68.14
76611;BME280;65503;48.534;9.062;2024-03-23T06:51:36;96237.25;;;10.25;69.17
76611;BME280;65503;48.534;9.062;2024-03-23T06:54:03;96254.75;;;10.36;67.68
76611;BME280;65503;48.534;9.062;2024-03-23T06:56:29;96265.00;;;10.38;68.68
76611;BME280;65503;48.534;9.062;2024-03-23T06:58:56;96264.63;;;10.29;67.70
76611;BME280;65503;48.534;9.062;2024-03-23T07:01:22;96270.56;;;10.41;67.87
76611;BME280;65503;48.534;9.062;2024-03-23T07:03:47;96273.31;;;10.51;67.95
76611;BME280;65503;48.534;9.062;2024-03-23T07:06:13;96256.63;;;10.41;67.37
76611;BME280;65503;48.534;9.062;2024-03-23T07:08:38;96252.03;;;10.31;66.64
76611;BME280;65503;48.534;9.062;2024-03-23T07:11:04;96258.41;;;10.35;67.38
76611;BME280;65503;48.534;9.062;2024-03-23T07:13:30;96266.81;;;10.37;66.97
76611;BME280;65503;48.534;9.062;2024-03-23T07:15:56;96251.78;;;10.54;66.55
76611;BME280;65503;48.534;9.062;2024-03-23T07:18:23;96253.97;;;10.62;67.61
76611;BME280;65503;48.534;9.062;2024-03-23T07:20:55;96263.59;;;11.32;64.90
76611;BME280;65503;48.534;9.062;2024-03-23T07:23:24;96263.41;;;11.76;61.92
76611;BME280;65503;48.534;9.062;2024-03-23T07:28:23;96282.25;;;10.99;65.33
76611;BME280;65503;48.534;9.062;2024-03-23T07:30:48;96286.25;;;11.33;64.71
76611;BME280;65503;48.534;9.062;2024-03-23T07:33:23;96289.63;;;11.29;65.69
76611;BME280;65503;48.534;9.062;2024-03-23T07:35:49;96290.50;;;11.39;63.92
76611;BME280;65503;48.534;9.062;2024-03-23T07:38:14;96283.09;;;11.04;66.05
76611;BME280;65503;48.534;9.062;2024-03-23T07:40:40;96299.75;;;11.10;67.48
76611;BME280;65503;48.534;9.062;2024-03-23T07:43:05;96313.63;;;11.32;66.26
76611;BME280;65503;48.534;9.062;2024-03-23T07:45:31;96318.94;;;11.37;65.18
76611;BME280;65503;48.534;9.062;2024-03-23T07:47:56;96331.66;;;11.45;64.65
76611;BME280;65503;48.534;9.062;2024-03-23T07:50:22;96316.50;;;11.63;66.18
76611;BME280;65503;48.534;9.062;2024-03-23T07:52:47;96328.44;;;11.70;65.00
76611;BME280;65503;48.534;9.062;2024-03-23T07:55:13;96342.00;;;11.79;65.09
76611;BME280;65503;48.534;9.062;2024-03-23T07:57:39;96335.13;;;11.51;63.52
76611;BME280;65503;48.534;9.062;2024-03-23T08:00:05;96341.28;;;11.62;63.97
76611;BME280;65503;48.534;9.062;2024-03-23T08:02:31;96348.47;;;11.12;64.27
76611;BME280;65503;48.534;9.062;2024-03-23T08:04:57;96354.13;;;11.26;63.59
76611;BME280;65503;48.534;9.062;2024-03-23T08:07:24;96378.88;;;11.25;64.09
76611;BME280;65503;48.534;9.062;2024-03-23T08:09:50;96386.84;;;10.10;67.11
76611;BME280;65503;48.534;9.062;2024-03-23T08:12:16;96407.88;;;10.10;68.04
76611;BME280;65503;48.534;9.062;2024-03-23T08:14:42;96435.75;;;9.77;67.98
76611;BME280;65503;48.534;9.062;2024-03-23T08:17:07;96433.34;;;9.31;67.26
76611;BME280;65503;48.534;9.062;2024-03-23T08:19:33;96438.38;;;9.32;66.87
76611;BME280;65503;48.534;9.062;2024-03-23T08:21:59;96448.25;;;9.42;64.98
76611;BME280;65503;48.534;9.062;2024-03-23T08:24:24;96453.22;;;10.00;64.95
76611;BME280;65503;48.534;9.062;2024-03-23T08:26:50;96455.72;;;10.23;62.51
76611;BME280;65503;48.534;9.062;2024-03-23T08:29:15;96424.81;;;10.91;59.73
76611;BME280;65503;48.534;9.062;2024-03-23T08:31:41;96427.00;;;11.69;58.10
76611;BME280;65503;48.534;9.062;2024-03-23T08:34:06;96447.25;;;12.59;53.89
76611;BME280;65503;48.534;9.062;2024-03-23T08:36:32;96455.94;;;13.69;52.38
76611;BME280;65503;48.534;9.062;2024-03-23T08:38:57;96473.28;;;13.40;49.35
76611;BME280;65503;48.534;9.062;2024-03-23T08:41:23;96486.56;;;13.55;50.93
76611;BME280;65503;48.534;9.062;2024-03-23T08:43:48;96495.72;;;12.85;49.95
76611;BME280;65503;48.534;9.062;2024-03-23T08:46:15;96509.03;;;12.58;51.90
76611;BME280;65503;48.534;9.062;2024-03-23T08:48:43;96516.38;;;11.49;52.43
76611;BME280;65503;48.534;9.062;2024-03-23T08:51:10;96519.56;;;11.51;54.19
76611;BME280;65503;48.534;9.062;2024-03-23T08:53:36;96524.72;;;11.41;52.94
76611;BME280;65503;48.534;9.062;2024-03-23T08:56:03;96539.03;;;10.90;54.87
76611;BME280;65503;48.534;9.062;2024-03-23T08:58:30;96534.44;;;10.80;53.24
76611;BME280;65503;48.534;9.062;2024-03-23T09:01:02;96547.19;;;10.71;53.52
76611;BME280;65503;48.534;9.062;2024-03-23T09:03:28;96565.44;;;10.95;54.71
76611;BME280;65503;48.534;9.062;2024-03-23T09:05:54;96559.22;;;11.01;52.83
76611;BME280;65503;48.534;9.062;2024-03-23T09:08:20;96561.22;;;11.10;53.06
76611;BME280;65503;48.534;9.062;2024-03-23T09:10:47;96570.56;;;11.23;52.89
76611;BME280;65503;48.534;9.062;2024-03-23T09:13:13;96578.34;;;11.13;52.71
76611;BME280;65503;48.534;9.062;2024-03-23T09:15:49;96573.97;;;10.35;52.83
76611;BME280;65503;48.534;9.062;2024-03-23T09:18:15;96567.56;;;10.59;54.65
76611;BME280;65503;48.534;9.062;2024-03-23T09:20:41;96561.69;;;11.07;51.60
76611;BME280;65503;48.534;9.062;2024-03-23T09:23:07;96571.91;;;11.04;51.71
76611;BME280;65503;48.534;9.062;2024-03-23T09:25:36;96569.28;;;10.87;51.61
76611;BME280;65503;48.534;9.062;2024-03-23T09:28:01;96570.44;;;11.13;51.74
76611;BME280;65503;48.534;9.062;2024-03-23T09:30:27;96578.31;;;11.51;49.60
76611;BME280;65503;48.534;9.062;2024-03-23T09:32:53;96577.97;;;11.86;49.85
76611;BME280;65503;48.534;9.062;2024-03-23T09:35:18;96572.78;;;12.18;47.30
76611;BME280;65503;48.534;9.062;2024-03-23T09:37:44;96579.84;;;12.39;48.12
76611;BME280;65503;48.534;9.062;2024-03-23T09:40:10;96571.00;;;12.56;47.56
76611;BME280;65503;48.534;9.062;2024-03-23T09:42:39;96568.53;;;12.76;45.94
76611;BME280;65503;48.534;9.062;2024-03-23T09:45:06;96562.69;;;12.69;47.32
76611;BME280;65503;48.534;9.062;2024-03-23T09:47:35;96563.97;;;12.66;46.88
76611;BME280;65503;48.534;9.062;2024-03-23T09:50:01;96566.69;;;12.45;47.49
76611;BME280;65503;48.534;9.062;2024-03-23T09:52:27;96571.47;;;12.48;48.71
76611;BME280;65503;48.534;9.062;2024-03-23T09:54:52;96574.59;;;12.76;49.62
76611;BME280;65503;48.534;9.062;2024-03-23T09:57:18;96582.56;;;12.81;46.14
76611;BME280;65503;48.534;9.062;2024-03-23T09:59:44;96579.22;;;11.79;50.06
76611;BME280;65503;48.534;9.062;2024-03-23T10:02:10;96573.03;;;10.74;52.46
76611;BME280;65503;48.534;9.062;2024-03-23T10:04:41;96569.84;;;10.39;59.03
76611;BME280;65503;48.534;9.062;2024-03-23T10:07:23;96569.19;;;10.04;61.04
76611;BME280;65503;48.534;9.062;2024-03-23T10:09:48;96555.72;;;9.72;62.72
76611;BME280;65503;48.534;9.062;2024-03-23T10:12:18;96549.66;;;10.00;62.31
76611;BME280;65503;48.534;9.062;2024-03-23T10:14:43;96546.16;;;10.72;63.53
76611;BME280;65503;48.534;9.062;2024-03-23T10:17:20;96542.22;;;11.08;61.51
76611;BME280;65503;48.534;9.062;2024-03-23T10:19:51;96537.31;;;10.78;58.70
76611;BME280;65503;48.534;9.062;2024-03-23T10:22:21;96539.47;;;10.03;59.87
76611;BME280;65503;48.534;9.062;2024-03-23T10:24:48;96554.78;;;10.68;60.19
76611;BME280;65503;48.534;9.062;2024-03-23T10:27:21;96545.59;;;11.47;56.49
76611;BME280;65503;48.534;9.062;2024-03-23T10:29:50;96546.50;;;12.28;57.60
76611;BME280;65503;48.534;9.062;2024-03-23T10:32:17;96542.03;;;12.29;52.41
76611;BME280;65503;48.534;9.062;2024-03-23T10:34:43;96531.06;;;12.79;48.89
76611;BME280;65503;48.534;9.062;2024-03-23T10:37:09;96520.53;;;13.21;51.34
76611;BME280;65503;48.534;9.062;2024-03-23T10:39:37;96521.44;;;13.57;47.83
76611;BME280;65503;48.534;9.062;2024-03-23T10:42:04;96529.84;;;13.39;46.00
76611;BME280;65503;48.534;9.062;2024-03-23T10:44:31;96525.16;;;12.03;46.57
76611;BME280;65503;48.534;9.062;2024-03-23T10:47:01;96525.03;;;11.44;46.90
76611;BME280;65503;48.534;9.062;2024-03-23T10:49:33;96527.25;;;10.92;47.50
76611;BME280;65503;48.534;9.062;2024-03-23T10:52:00;96535.88;;;9.92;50.30
76611;BME280;65503;48.534;9.062;2024-03-23T10:54:29;96599.66;;;9.25;59.38
76611;BME280;65503;48.534;9.062;2024-03-23T10:57:03;96605.53;;;7.61;65.81
76611;BME280;65503;48.534;9.062;2024-03-23T10:59:31;96601.00;;;7.31;67.12
76611;BME280;65503;48.534;9.062;2024-03-23T11:01:59;96590.22;;;7.58;66.34
76611;BME280;65503;48.534;9.062;2024-03-23T11:04:36;96599.88;;;7.45;64.69
76611;BME280;65503;48.534;9.062;2024-03-23T11:07:29;96600.16;;;7.56;65.20
76611;BME280;65503;48.534;9.062;2024-03-23T11:09:56;96594.69;;;8.05;63.02
76611;BME280;65503;48.534;9.062;2024-03-23T11:14:52;96607.75;;;9.11;59.12
76611;BME280;65503;48.534;9.062;2024-03-23T11:17:19;96593.28;;;8.97;59.42
76611;BME280;65503;48.534;9.062;2024-03-23T11:19:53;96580.94;;;9.33;59.96
76611;BME280;65503;48.534;9.062;2024-03-23T11:27:37;96591.53;;;9.89;56.01
76611;BME280;65503;48.534;9.062;2024-03-23T11:30:13;96592.75;;;10.27;54.49
76611;BME280;65503;48.534;9.062;2024-03-23T11:32:40;96594.56;;;10.55;51.76
76611;BME280;65503;48.534;9.062;2024-03-23T11:35:06;96597.56;;;10.30;52.52
76611;BME280;65503;48.534;9.062;2024-03-23T11:37:32;96599.97;;;10.48;51.23
76611;BME280;65503;48.534;9.062;2024-03-23T11:39:57;96602.44;;;10.38;51.01
76611;BME280;65503;48.534;9.062;2024-03-23T11:42:23;96610.75;;;9.78;51.25
76611;BME280;65503;48.534;9.062;2024-03-23T11:44:48;96605.28;;;9.68;54.44
76611;BME280;65503;48.534;9.062;2024-03-23T11:47:14;96615.28;;;9.94;52.71
76611;BME280;65503;48.534;9.062;2024-03-23T11:49:39;96621.22;;;10.02;51.86
76611;BME280;65503;48.534;9.062;2024-03-23T11:52:08;96612.25;;;10.03;51.24
76611;BME280;65503;48.534;9.062;2024-03-23T11:54:34;96611.91;;;10.39;50.55
76611;BME280;65503;48.534;9.062;2024-03-23T11:57:01;96609.03;;;10.24;47.88
76611;BME280;65503;48.534;9.062;2024-03-23T11:59:34;96605.34;;;9.97;49.82
76611;BME280;65503;48.534;9.062;2024-03-23T12:02:06;96610.09;;;9.71;50.36
76611;BME280;65503;48.534;9.062;2024-03-23T12:04:31;96607.03;;;9.91;53.63
76611;BME280;65503;48.534;9.062;2024-03-23T12:09:42;96610.06;;;9.83;50.81
76611;BME280;65503;48.534;9.062;2024-03-23T12:12:10;96603.22;;;10.10;51.85
76611;BME280;65503;48.534;9.062;2024-03-23T12:14:36;96606.63;;;10.22;49.94
76611;BME280;65503;48.534;9.062;2024-03-23T12:17:14;96612.22;;;10.14;53.09
76611;BME280;65503;48.534;9.062;2024-03-23T12:19:41;96622.19;;;10.12;53.58
76611;BME280;65503;48.534;9.062;2024-03-23T12:22:10;96613.06;;;10.03;54.20
76611;BME280;65503;48.534;9.062;2024-03-23T12:24:36;96598.84;;;10.16;53.28
76611;BME280;65503;48.534;9.062;2024-03-23T12:27:02;96611.09;;;10.22;54.11
76611;BME280;65503;48.534;9.062;2024-03-23T12:29:32;96606.72;;;9.87;55.26
76611;BME280;65503;48.534;9.062;2024-03-23T12:32:01;96606.63;;;9.82;55.20
76611;BME280;65503;48.534;9.062;2024-03-23T12:34:27;96615.16;;;9.61;55.51
76611;BME280;65503;48.534;9.062;2024-03-23T12:36:54;96615.00;;;9.79;54.80
76611;BME280;65503;48.534;9.062;2024-03-23T12:39:20;96614.28;;;10.24;55.92
76611;BME280;65503;48.534;9.062;2024-03-23T12:41:49;96619.88;;;10.44;53.66
76611;BME280;65503;48.534;9.062;2024-03-23T12:44:15;96623.75;;;11.03;53.95
76611;BME280;65503;48.534;9.062;2024-03-23T12:46:41;96605.09;;;10.71;52.09
76611;BME280;65503;48.534;9.062;2024-03-23T12:49:07;96608.78;;;10.70;53.34
76611;BME280;65503;48.534;9.062;2024-03-23T12:51:33;96603.84;;;10.01;54.66
76611;BME280;65503;48.534;9.062;2024-03-23T12:53:59;96599.03;;;9.98;55.64
76611;BME280;65503;48.534;9.062;2024-03-23T12:56:24;96596.66;;;9.96;54.82
76611;BME280;65503;48.534;9.062;2024-03-23T12:58:50;96604.28;;;9.98;55.33
76611;BME280;65503;48.534;9.062;2024-03-23T13:01:19;96601.97;;;10.58;53.74
76611;BME280;65503;48.534;9.062;2024-03-23T13:03:49;96593.94;;;10.64;54.23
76611;BME280;65503;48.534;9.062;2024-03-23T13:06:15;96596.72;;;10.74;54.57
76611;BME280;65503;48.534;9.062;2024-03-23T13:08:41;96590.31;;;11.21;52.74
76611;BME280;65503;48.534;9.062;2024-03-23T13:11:07;96574.88;;;11.29;50.98
76611;BME280;65503;48.534;9.062;2024-03-23T13:13:34;96575.00;;;11.01;51.52
76611;BME280;65503;48.534;9.062;2024-03-23T13:16:00;96561.84;;;11.01;51.88
76611;BME280;65503;48.534;9.062;2024-03-23T13:18:26;96588.88;;;11.13;53.42
76611;BME280;65503;48.534;9.062;2024-03-23T13:20:51;96601.13;;;11.63;48.95
76611;BME280;65503;48.534;9.062;2024-03-23T13:23:17;96596.44;;;11.26;47.67
76611;BME280;65503;48.534;9.062;2024-03-23T13:25:53;96578.41;;;10.18;49.31
76611;BME280;65503;48.534;9.062;2024-03-23T13:28:20;96582.81;;;10.01;50.52
76611;BME280;65503;48.534;9.062;2024-03-23T13:30:56;96583.69;;;9.78;50.95
76611;BME280;65503;48.534;9.062;2024-03-23T13:33:22;96577.66;;;9.66;52.08
76611;BME280;65503;48.534;9.062;2024-03-23T13:35:52;96561.13;;;9.53;52.73
76611;BME280;65503;48.534;9.062;2024-03-23T13:38:17;96561.28;;;10.32;51.59
76611;BME280;65503;48.534;9.062;2024-03-23T13:40:53;96550.25;;;10.47;49.27
76611;BME280;65503;48.534;9.062;2024-03-23T13:43:19;96543.69;;;10.66;49.39
76611;BME280;65503;48.534;9.062;2024-03-23T13:45:46;96537.81;;;10.59;50.05
76611;BME280;65503;48.534;9.062;2024-03-23T13:48:12;96542.66;;;10.50;50.60
76611;BME280;65503;48.534;9.062;2024-03-23T13:50:38;96554.78;;;10.34;51.69
76611;BME280;65503;48.534;9.062;2024-03-23T13:53:03;96561.13;;;10.22;51.26
76611;BME280;65503;48.534;9.062;2024-03-23T13:55:29;96556.84;;;9.76;52.46
76611;BME280;65503;48.534;9.062;2024-03-23T13:57:54;96553.03;;;9.55;51.33
76611;BME280;65503;48.534;9.062;2024-03-23T14:00:20;96547.34;;;9.35;50.30
76611;BME280;65503;48.534;9.062;2024-03-23T14:02:46;96561.44;;;9.69;50.63
76611;BME280;65503;48.534;9.062;2024-03-23T14:05:11;96546.75;;;8.58;55.93
76611;BME280;65503;48.534;9.062;2024-03-23T14:07:37;96516.88;;;7.76;58.67